createdAt,value
2017-04-21T00:00:41.732Z,11.07
2017-04-21T00:01:39.620Z,11.83
2017-04-21T00:02:37.552Z,10.24
2017-04-21T00:03:35.393Z,11.44
2017-04-21T00:04:33.334Z,11.43
2017-04-21T00:05:31.197Z,11.50
2017-04-21T00:06:29.048Z,10.81
2017-04-21T00:07:26.976Z,11.20
2017-04-21T00:08:24.840Z,11.00
2017-04-21T00:09:22.721Z,11.47
2017-04-21T00:10:20.604Z,10.67
2017-04-21T00:11:18.475Z,10.89
2017-04-21T00:12:16.324Z,11.00
2017-04-21T00:13:14.220Z,11.23
2017-04-21T00:14:12.109Z,11.47
2017-04-21T00:15:10.033Z,12.49
2017-04-21T00:16:08.018Z,11.49
2017-04-21T00:17:05.880Z,11.94
2017-04-21T00:18:03.804Z,12.03
2017-04-21T00:19:01.650Z,10.71
2017-04-21T00:19:59.504Z,10.89
2017-04-21T00:20:57.370Z,11.56
2017-04-21T00:21:55.282Z,11.80
2017-04-21T00:22:53.125Z,10.33
2017-04-21T00:23:50.993Z,10.00
2017-04-21T00:24:48.877Z,12.11
2017-04-21T00:25:46.728Z,10.93
2017-04-21T00:26:44.608Z,11.31
2017-04-21T00:27:42.536Z,11.49
2017-04-21T00:28:40.526Z,12.06
2017-04-21T00:29:38.447Z,11.37
2017-04-21T00:30:36.344Z,11.41
2017-04-21T00:31:34.236Z,12.23
2017-04-21T00:32:32.085Z,11.64
2017-04-21T00:33:29.989Z,10.76
2017-04-21T00:34:27.860Z,12.31
2017-04-21T00:35:25.737Z,11.31
2017-04-21T00:36:23.596Z,11.69
2017-04-21T00:37:21.498Z,11.83
2017-04-21T00:38:19.424Z,11.04
2017-04-21T00:39:17.266Z,11.31
2017-04-21T00:40:15.124Z,11.69
2017-04-21T00:41:13.076Z,11.81
2017-04-21T00:42:10.964Z,11.36
2017-04-21T00:43:08.883Z,11.39
2017-04-21T00:44:06.812Z,10.34
2017-04-21T00:45:04.656Z,11.83
2017-04-21T00:46:02.504Z,11.61
2017-04-21T00:47:00.365Z,12.34
2017-04-21T00:47:58.277Z,12.53
2017-04-21T00:48:56.141Z,10.90
2017-04-21T00:49:54.024Z,11.66
2017-04-21T00:50:51.889Z,11.80
2017-04-21T00:51:49.745Z,11.19
2017-04-21T00:52:47.613Z,11.60
2017-04-21T00:53:45.517Z,12.19
2017-04-21T00:54:43.388Z,10.71
2017-04-21T00:55:41.364Z,11.77
2017-04-21T00:56:39.300Z,12.09
2017-04-21T00:57:37.181Z,12.50
2017-04-21T00:58:35.040Z,11.44
2017-04-21T00:59:33.193Z,11.71
2017-04-21T01:00:31.077Z,12.86
2017-04-21T01:01:28.985Z,11.31
2017-04-21T01:02:26.949Z,12.17
2017-04-21T01:03:24.821Z,11.63
2017-04-21T01:04:22.700Z,11.81
2017-04-21T01:05:20.549Z,12.03
2017-04-21T01:06:18.438Z,11.34
2017-04-21T01:07:16.349Z,11.96
2017-04-21T01:08:14.249Z,12.67
2017-04-21T01:09:12.158Z,10.84
2017-04-21T01:10:10.092Z,12.06
2017-04-21T01:11:08.061Z,12.06
2017-04-21T01:12:05.896Z,11.31
2017-04-21T01:13:03.781Z,11.91
2017-04-21T01:14:01.629Z,11.67
2017-04-21T01:14:59.553Z,12.60
2017-04-21T01:15:57.467Z,12.14
2017-04-21T01:16:55.329Z,12.10
2017-04-21T01:17:53.228Z,11.64
2017-04-21T01:18:51.085Z,11.69
2017-04-21T01:19:48.980Z,12.60
2017-04-21T01:20:46.969Z,12.59
2017-04-21T01:21:44.820Z,10.17
2017-04-21T01:22:42.681Z,12.37
2017-04-21T01:23:40.677Z,11.94
2017-04-21T01:24:38.603Z,11.91
2017-04-21T01:25:36.490Z,12.23
2017-04-21T01:26:34.365Z,12.93
2017-04-21T01:27:32.240Z,11.11
2017-04-21T01:28:30.096Z,12.47
2017-04-21T01:29:28.006Z,13.94
2017-04-21T01:30:25.912Z,12.74
2017-04-21T01:31:23.808Z,13.27
2017-04-21T01:32:21.668Z,13.56
2017-04-21T01:33:19.601Z,13.71
2017-04-21T01:34:17.492Z,14.53
2017-04-21T01:35:15.353Z,12.97
2017-04-21T01:36:13.333Z,12.29
2017-04-21T01:37:11.243Z,12.13
2017-04-21T01:38:09.195Z,12.94
2017-04-21T01:39:07.105Z,14.41
2017-04-21T01:40:04.950Z,14.09
2017-04-21T01:41:02.803Z,14.71
2017-04-21T01:42:00.702Z,14.19
2017-04-21T01:42:58.569Z,13.13
2017-04-21T01:43:56.424Z,12.94
2017-04-21T01:44:54.293Z,13.16
2017-04-21T01:45:52.181Z,14.06
2017-04-21T01:46:50.049Z,13.64
2017-04-21T01:47:47.941Z,13.94
2017-04-21T01:48:45.805Z,13.97
2017-04-21T01:49:43.665Z,13.89
2017-04-21T01:50:41.556Z,14.23
2017-04-21T01:51:39.441Z,13.81
2017-04-21T01:52:37.369Z,12.97
2017-04-21T01:53:35.318Z,16.14
2017-04-21T01:54:33.161Z,14.47
2017-04-21T01:55:31.025Z,14.27
2017-04-21T01:56:28.891Z,15.51
2017-04-21T01:57:26.732Z,16.11
2017-04-21T01:58:24.574Z,12.80
2017-04-21T01:59:22.477Z,15.87
2017-04-21T02:00:20.342Z,15.36
2017-04-21T02:01:18.224Z,13.87
2017-04-21T02:02:16.088Z,14.20
2017-04-21T02:03:13.965Z,13.90
2017-04-21T02:04:11.905Z,14.77
2017-04-21T02:05:09.949Z,14.37
2017-04-21T02:06:07.872Z,14.80
2017-04-21T02:07:05.725Z,12.73
2017-04-21T02:08:03.580Z,14.84
2017-04-21T02:09:01.424Z,15.37
2017-04-21T02:09:59.323Z,14.70
2017-04-21T02:10:57.181Z,14.49
2017-04-21T02:11:55.040Z,14.21
2017-04-21T02:12:52.893Z,14.27
2017-04-21T02:13:50.788Z,12.79
2017-04-21T02:14:48.756Z,14.26
2017-04-21T02:15:46.621Z,13.67
2017-04-21T02:16:44.469Z,14.67
2017-04-21T02:17:42.349Z,14.59
2017-04-21T02:18:40.281Z,13.91
2017-04-21T02:19:38.303Z,14.91
2017-04-21T02:20:36.154Z,15.36
2017-04-21T02:21:33.992Z,15.39
2017-04-21T02:22:31.849Z,14.20
2017-04-21T02:23:29.696Z,15.46
2017-04-21T02:24:27.533Z,14.73
2017-04-21T02:25:25.464Z,13.74
2017-04-21T02:26:23.309Z,15.39
2017-04-21T02:27:21.196Z,14.11
2017-04-21T02:28:19.058Z,15.30
2017-04-21T02:29:16.930Z,14.76
2017-04-21T02:30:14.813Z,14.46
2017-04-21T02:31:12.765Z,14.29
2017-04-21T02:32:10.728Z,15.47
2017-04-21T02:33:08.628Z,14.03
2017-04-21T02:34:06.508Z,15.86
2017-04-21T02:35:04.373Z,14.54
2017-04-21T02:36:02.276Z,15.06
2017-04-21T02:37:00.125Z,15.89
2017-04-21T02:37:57.972Z,14.94
2017-04-21T02:38:55.837Z,16.29
2017-04-21T02:39:53.706Z,12.69
2017-04-21T02:40:51.608Z,14.59
2017-04-21T02:41:49.528Z,14.56
2017-04-21T02:42:47.389Z,15.09
2017-04-21T02:43:45.249Z,15.93
2017-04-21T02:44:43.161Z,13.69
2017-04-21T02:45:41.088Z,14.59
2017-04-21T02:46:39.027Z,14.00
2017-04-21T02:47:36.889Z,15.50
2017-04-21T02:48:34.748Z,15.30
2017-04-21T02:49:32.601Z,14.23
2017-04-21T02:50:30.464Z,14.24
2017-04-21T02:51:28.401Z,14.39
2017-04-21T02:52:26.244Z,13.80
2017-04-21T02:53:24.132Z,14.84
2017-04-21T02:54:21.982Z,15.50
2017-04-21T02:55:19.836Z,14.19
2017-04-21T02:56:17.689Z,14.44
2017-04-21T02:57:15.633Z,14.43
2017-04-21T02:58:13.544Z,14.36
2017-04-21T02:59:11.477Z,14.57
2017-04-21T03:00:09.406Z,14.33
2017-04-21T03:01:07.277Z,15.53
2017-04-21T03:02:05.173Z,14.70
2017-04-21T03:03:03.029Z,14.94
2017-04-21T03:04:00.893Z,14.37
2017-04-21T03:04:58.732Z,15.40
2017-04-21T03:05:56.586Z,15.60
2017-04-21T03:06:54.444Z,15.50
2017-04-21T03:07:52.341Z,14.73
2017-04-21T03:08:50.221Z,15.17
2017-04-21T03:09:48.140Z,15.20
2017-04-21T03:10:45.996Z,14.69
2017-04-21T03:11:43.889Z,15.27
2017-04-21T03:12:41.805Z,14.50
2017-04-21T03:13:39.690Z,13.79
2017-04-21T03:14:37.824Z,15.37
2017-04-21T03:15:35.677Z,15.29
2017-04-21T03:16:33.529Z,14.31
2017-04-21T03:17:31.417Z,14.99
2017-04-21T03:18:29.253Z,14.90
2017-04-21T03:19:27.112Z,16.14
2017-04-21T03:20:24.961Z,15.13
2017-04-21T03:21:22.884Z,14.79
2017-04-21T03:22:20.813Z,15.87
2017-04-21T03:23:18.673Z,15.73
2017-04-21T03:24:16.526Z,14.79
2017-04-21T03:25:14.421Z,14.50
2017-04-21T03:26:12.358Z,15.41
2017-04-21T03:27:10.361Z,15.30
2017-04-21T03:28:08.287Z,15.44
2017-04-21T03:29:06.177Z,14.97
2017-04-21T03:30:04.028Z,15.33
2017-04-21T03:31:01.881Z,14.41
2017-04-21T03:31:59.728Z,14.09
2017-04-21T03:32:57.621Z,16.43
2017-04-21T03:33:55.476Z,16.87
2017-04-21T03:34:53.329Z,16.36
2017-04-21T03:35:51.173Z,16.97
2017-04-21T03:36:49.013Z,15.67
2017-04-21T03:37:46.917Z,15.23
2017-04-21T03:38:44.756Z,17.20
2017-04-21T03:39:42.709Z,13.61
2017-04-21T03:40:40.626Z,16.70
2017-04-21T03:41:38.576Z,15.24
2017-04-21T03:42:36.433Z,15.21
2017-04-21T03:43:34.322Z,15.13
2017-04-21T03:44:32.173Z,14.66
2017-04-21T03:45:30.009Z,14.76
2017-04-21T03:46:27.849Z,16.29
2017-04-21T03:47:25.688Z,14.46
2017-04-21T03:48:23.601Z,15.30
2017-04-21T03:49:21.452Z,16.86
2017-04-21T03:50:19.314Z,14.70
2017-04-21T03:51:17.169Z,15.96
2017-04-21T03:52:15.025Z,14.96
2017-04-21T03:53:12.926Z,14.84
2017-04-21T03:54:10.846Z,14.84
2017-04-21T03:55:08.732Z,15.46
2017-04-21T03:56:06.574Z,15.49
2017-04-21T03:57:04.428Z,14.51
2017-04-21T03:58:02.325Z,14.79
2017-04-21T03:59:00.180Z,14.06
2017-04-21T03:59:58.058Z,15.59
2017-04-21T04:00:55.929Z,15.64
2017-04-21T04:01:53.789Z,15.94
2017-04-21T04:02:51.639Z,15.07
2017-04-21T04:03:49.533Z,15.39
2017-04-21T04:04:47.380Z,15.33
2017-04-21T04:05:45.237Z,15.40
2017-04-21T04:06:43.113Z,16.36
2017-04-21T04:07:41.025Z,14.90
2017-04-21T04:08:39.053Z,15.20
2017-04-21T04:09:36.948Z,14.93
2017-04-21T04:10:34.809Z,15.73
2017-04-21T04:11:32.740Z,14.56
2017-04-21T04:12:30.790Z,14.21
2017-04-21T04:13:28.649Z,13.94
2017-04-21T04:14:26.514Z,15.56
2017-04-21T04:15:24.369Z,15.53
2017-04-21T04:16:22.217Z,15.47
2017-04-21T04:17:20.110Z,15.36
2017-04-21T04:18:17.960Z,14.13
2017-04-21T04:19:15.817Z,15.39
2017-04-21T04:20:13.709Z,14.76
2017-04-21T04:21:11.609Z,14.01
2017-04-21T04:22:09.529Z,12.64
2017-04-21T04:23:07.543Z,12.46
2017-04-21T04:24:05.408Z,13.86
2017-04-21T04:25:03.265Z,13.59
2017-04-21T04:26:01.112Z,12.84
2017-04-21T04:26:58.965Z,13.71
2017-04-21T04:27:56.848Z,12.49
2017-04-21T04:28:54.724Z,11.30
2017-04-21T04:29:52.623Z,13.04
2017-04-21T04:30:50.473Z,14.20
2017-04-21T04:31:48.313Z,12.74
2017-04-21T04:32:46.157Z,13.51
2017-04-21T04:33:44.093Z,12.47
2017-04-21T04:34:42.404Z,14.09
2017-04-21T04:35:40.336Z,12.14
2017-04-21T04:36:38.340Z,13.56
2017-04-21T04:37:36.199Z,11.49
2017-04-21T04:38:34.052Z,12.76
2017-04-21T04:39:31.953Z,12.33
2017-04-21T04:40:29.825Z,12.86
2017-04-21T04:41:27.688Z,13.21
2017-04-21T04:42:25.533Z,12.50
2017-04-21T04:43:23.696Z,12.60
2017-04-21T04:44:21.549Z,11.30
2017-04-21T04:45:19.476Z,12.24
2017-04-21T04:46:17.320Z,12.31
2017-04-21T04:47:15.169Z,11.70
2017-04-21T04:48:13.074Z,12.47
2017-04-21T04:49:11.085Z,11.57
2017-04-21T04:50:09.016Z,11.99
2017-04-21T04:51:06.925Z,12.09
2017-04-21T04:52:04.833Z,13.84
2017-04-21T04:53:02.677Z,11.99
2017-04-21T04:54:00.509Z,11.51
2017-04-21T04:54:58.354Z,13.87
2017-04-21T04:55:56.256Z,12.03
2017-04-21T04:56:54.128Z,14.19
2017-04-21T04:57:52.020Z,14.04
2017-04-21T04:58:49.896Z,13.40
2017-04-21T04:59:47.753Z,14.44
2017-04-21T05:00:45.609Z,13.17
2017-04-21T05:01:43.571Z,13.57
2017-04-21T05:02:41.460Z,12.76
2017-04-21T05:03:39.368Z,11.83
2017-04-21T05:04:37.278Z,11.50
2017-04-21T05:05:35.137Z,11.16
2017-04-21T05:06:32.988Z,11.04
2017-04-21T05:07:30.925Z,10.83
2017-04-21T05:08:28.769Z,10.69
2017-04-21T05:09:26.619Z,11.89
2017-04-21T05:10:24.457Z,11.47
2017-04-21T05:11:22.301Z,11.61
2017-04-21T05:12:20.152Z,11.14
2017-04-21T05:13:18.074Z,12.33
2017-04-21T05:14:15.948Z,10.39
2017-04-21T05:15:13.900Z,12.93
2017-04-21T05:16:11.821Z,11.77
2017-04-21T05:17:09.736Z,11.60
2017-04-21T05:18:07.701Z,11.50
2017-04-21T05:19:05.557Z,11.31
2017-04-21T05:20:03.424Z,11.09
2017-04-21T05:21:01.262Z,9.71
2017-04-21T05:21:59.097Z,10.84
2017-04-21T05:22:56.933Z,11.31
2017-04-21T05:23:54.831Z,11.41
2017-04-21T05:24:52.684Z,11.30
2017-04-21T05:25:50.558Z,11.40
2017-04-21T05:26:48.397Z,10.97
2017-04-21T05:27:46.237Z,11.40
2017-04-21T05:28:44.219Z,11.51
2017-04-21T05:29:42.110Z,12.09
2017-04-21T05:30:41.558Z,11.07
2017-04-21T05:31:39.456Z,12.90
2017-04-21T05:32:37.336Z,10.61
2017-04-21T05:33:35.258Z,12.16
2017-04-21T05:34:33.201Z,10.67
2017-04-21T05:35:31.064Z,11.46
2017-04-21T05:36:28.910Z,11.67
2017-04-21T05:37:26.757Z,11.44
2017-04-21T05:38:24.609Z,11.87
2017-04-21T05:39:22.508Z,11.50
2017-04-21T05:40:20.413Z,13.43
2017-04-21T05:41:18.277Z,14.21
2017-04-21T05:42:16.140Z,13.76
2017-04-21T05:43:14.045Z,14.14
2017-04-21T05:44:11.941Z,14.67
2017-04-21T05:45:09.873Z,13.94
2017-04-21T05:46:07.890Z,14.53
2017-04-21T05:47:05.738Z,13.06
2017-04-21T05:48:03.605Z,12.30
2017-04-21T05:49:01.459Z,12.01
2017-04-21T05:49:59.443Z,14.34
2017-04-21T05:50:57.353Z,14.84
2017-04-21T05:51:55.297Z,15.04
2017-04-21T05:52:53.158Z,13.26
2017-04-21T05:53:51.040Z,14.51
2017-04-21T05:54:48.904Z,15.23
2017-04-21T05:55:46.755Z,15.44
2017-04-21T05:56:44.648Z,15.43
2017-04-21T05:57:42.533Z,14.44
2017-04-21T05:58:40.463Z,15.51
2017-04-21T05:59:38.393Z,16.03
2017-04-21T06:00:36.244Z,14.14
2017-04-21T06:01:34.101Z,16.17
2017-04-21T06:02:32.052Z,15.10
2017-04-21T06:03:29.896Z,15.23
2017-04-21T06:04:27.740Z,14.61
2017-04-21T06:05:25.589Z,13.93
2017-04-21T06:06:23.433Z,14.77
2017-04-21T06:07:21.301Z,14.39
2017-04-21T06:08:19.213Z,14.66
2017-04-21T06:09:17.097Z,13.87
2017-04-21T06:10:15.025Z,12.61
2017-04-21T06:11:12.966Z,11.80
2017-04-21T06:12:10.892Z,12.41
2017-04-21T06:13:08.820Z,10.93
2017-04-21T06:14:06.704Z,11.09
2017-04-21T06:15:04.568Z,11.16
2017-04-21T06:16:02.478Z,10.54
2017-04-21T06:17:00.368Z,10.37
2017-04-21T06:17:58.260Z,10.54
2017-04-21T06:18:56.137Z,10.16
2017-04-21T06:19:54.032Z,9.16
2017-04-21T06:20:51.942Z,10.09
2017-04-21T06:21:49.793Z,10.67
2017-04-21T06:22:47.637Z,10.79
2017-04-21T06:23:45.574Z,10.13
2017-04-21T06:24:43.520Z,11.06
2017-04-21T06:25:41.477Z,10.77
2017-04-21T06:26:39.420Z,10.33
2017-04-21T06:27:37.306Z,9.57
2017-04-21T06:28:35.216Z,10.19
2017-04-21T06:29:33.096Z,10.46
2017-04-21T06:30:30.952Z,9.54
2017-04-21T06:31:28.800Z,9.50
2017-04-21T06:32:26.653Z,9.96
2017-04-21T06:33:24.521Z,10.03
2017-04-21T06:34:22.473Z,8.47
2017-04-21T06:35:20.332Z,8.91
2017-04-21T06:36:18.182Z,9.71
2017-04-21T06:37:16.089Z,9.93
2017-04-21T06:38:13.983Z,10.29
2017-04-21T06:39:11.951Z,10.39
2017-04-21T06:40:09.832Z,10.16
2017-04-21T06:41:07.701Z,9.59
2017-04-21T06:42:05.533Z,9.06
2017-04-21T06:43:03.434Z,10.13
2017-04-21T06:44:01.289Z,9.11
2017-04-21T06:44:59.149Z,10.20
2017-04-21T06:45:57.001Z,10.37
2017-04-21T06:46:54.858Z,9.50
2017-04-21T06:47:52.705Z,9.93
2017-04-21T06:48:50.596Z,9.43
2017-04-21T06:49:48.433Z,10.46
2017-04-21T06:50:46.274Z,10.17
2017-04-21T06:51:44.173Z,9.29
2017-04-21T06:52:42.098Z,10.50
2017-04-21T06:53:40.064Z,10.36
2017-04-21T06:54:37.964Z,10.11
2017-04-21T06:55:35.820Z,10.66
2017-04-21T06:56:33.660Z,11.00
2017-04-21T06:57:31.509Z,10.04
2017-04-21T06:58:29.401Z,10.97
2017-04-21T06:59:27.261Z,10.76
2017-04-21T07:00:25.125Z,9.89
2017-04-21T07:01:22.989Z,10.81
2017-04-21T07:02:23.761Z,10.33
2017-04-21T07:03:21.604Z,9.40
2017-04-21T07:04:19.525Z,10.41
2017-04-21T07:05:17.393Z,10.16
2017-04-21T07:06:15.516Z,10.19
2017-04-21T07:07:13.396Z,10.89
2017-04-21T07:08:11.448Z,10.44
2017-04-21T07:09:09.370Z,9.97
2017-04-21T07:10:07.525Z,10.71
2017-04-21T07:11:05.362Z,11.13
2017-04-21T07:12:03.217Z,10.77
2017-04-21T07:13:01.093Z,11.69
2017-04-21T07:13:58.949Z,12.36
2017-04-21T07:14:56.828Z,12.60
2017-04-21T07:15:54.666Z,10.31
2017-04-21T07:16:52.505Z,10.89
2017-04-21T07:17:50.348Z,12.47
2017-04-21T07:18:48.206Z,13.11
2017-04-21T07:19:46.104Z,11.77
2017-04-21T07:20:43.993Z,11.66
2017-04-21T07:21:41.966Z,11.77
2017-04-21T07:22:39.848Z,11.57
2017-04-21T07:23:37.796Z,12.07
2017-04-21T07:24:35.645Z,11.83
2017-04-21T07:25:33.521Z,10.47
2017-04-21T07:26:31.421Z,12.69
2017-04-21T07:27:29.331Z,10.71
2017-04-21T07:28:27.164Z,11.43
2017-04-21T07:29:25.001Z,12.01
2017-04-21T07:30:23.021Z,11.77
2017-04-21T07:31:20.860Z,13.26
2017-04-21T07:32:18.701Z,11.21
2017-04-21T07:33:16.576Z,11.07
2017-04-21T07:34:14.437Z,12.70
2017-04-21T07:35:12.347Z,12.44
2017-04-21T07:36:10.276Z,11.54
2017-04-21T07:37:08.218Z,13.33
2017-04-21T07:38:06.266Z,12.49
2017-04-21T07:39:04.318Z,12.81
2017-04-21T07:40:02.178Z,12.59
2017-04-21T07:41:00.013Z,13.80
2017-04-21T07:41:57.917Z,13.24
2017-04-21T07:42:55.817Z,13.61
2017-04-21T07:43:53.662Z,12.91
2017-04-21T07:44:51.496Z,13.70
2017-04-21T07:45:49.340Z,14.66
2017-04-21T07:46:47.193Z,14.30
2017-04-21T07:47:45.085Z,14.91
2017-04-21T07:48:42.993Z,14.81
2017-04-21T07:49:40.904Z,15.33
2017-04-21T07:50:38.816Z,13.83
2017-04-21T07:51:36.688Z,15.69
2017-04-21T07:52:34.572Z,15.36
2017-04-21T07:53:32.424Z,15.50
2017-04-21T07:54:30.267Z,16.34
2017-04-21T07:55:28.112Z,16.46
2017-04-21T07:56:25.948Z,15.73
2017-04-21T07:57:23.804Z,14.23
2017-04-21T07:58:21.673Z,16.53
2017-04-21T07:59:19.516Z,15.81
2017-04-21T08:00:17.353Z,15.60
2017-04-21T08:01:15.289Z,14.47
2017-04-21T08:02:13.240Z,16.54
2017-04-21T08:03:11.171Z,17.40
2017-04-21T08:04:09.152Z,16.13
2017-04-21T08:05:07.051Z,17.24
2017-04-21T08:06:04.909Z,17.54
2017-04-21T08:07:02.767Z,17.83
2017-04-21T08:08:00.612Z,18.09
2017-04-21T08:08:58.498Z,17.57
2017-04-21T08:09:56.369Z,17.67
2017-04-21T08:10:54.226Z,18.33
2017-04-21T08:11:52.081Z,17.36
2017-04-21T08:12:49.962Z,18.30
2017-04-21T08:13:47.871Z,18.01
2017-04-21T08:14:45.737Z,17.24
2017-04-21T08:15:43.641Z,18.53
2017-04-21T08:16:41.576Z,18.91
2017-04-21T08:17:39.544Z,18.06
2017-04-21T08:18:37.425Z,18.20
2017-04-21T08:19:35.302Z,18.00
2017-04-21T08:20:33.140Z,18.23
2017-04-21T08:21:31.012Z,17.11
2017-04-21T08:22:28.857Z,17.30
2017-04-21T08:23:26.708Z,17.00
2017-04-21T08:24:24.588Z,17.89
2017-04-21T08:25:22.461Z,18.20
2017-04-21T08:26:20.304Z,18.77
2017-04-21T08:27:18.157Z,18.41
2017-04-21T08:28:16.001Z,20.44
2017-04-21T08:29:13.965Z,17.89
2017-04-21T08:30:11.879Z,18.31
2017-04-21T08:31:09.805Z,20.27
2017-04-21T08:32:07.685Z,19.11
2017-04-21T08:33:05.545Z,20.64
2017-04-21T08:34:03.395Z,18.90
2017-04-21T08:35:01.324Z,20.60
2017-04-21T08:35:59.185Z,19.44
2017-04-21T08:36:57.039Z,21.21
2017-04-21T08:37:54.909Z,20.96
2017-04-21T08:38:52.753Z,22.14
2017-04-21T08:39:50.666Z,20.89
2017-04-21T08:40:48.536Z,24.31
2017-04-21T08:41:46.391Z,22.90
2017-04-21T08:42:44.317Z,22.43
2017-04-21T08:43:42.233Z,23.61
2017-04-21T08:44:40.134Z,24.07
2017-04-21T08:45:38.089Z,23.13
2017-04-21T08:46:35.940Z,22.30
2017-04-21T08:47:33.809Z,23.74
2017-04-21T08:48:31.665Z,23.80
2017-04-21T08:49:29.505Z,23.74
2017-04-21T08:50:27.397Z,23.16
2017-04-21T08:51:25.255Z,22.60
2017-04-21T08:52:23.122Z,23.89
2017-04-21T08:53:20.968Z,23.40
2017-04-21T08:54:18.820Z,26.44
2017-04-21T08:55:16.670Z,24.30
2017-04-21T08:56:14.652Z,24.37
2017-04-21T08:57:12.557Z,25.80
2017-04-21T08:58:10.509Z,24.59
2017-04-21T08:59:08.436Z,22.90
2017-04-21T09:00:06.304Z,28.30
2017-04-21T09:01:04.181Z,24.33
2017-04-21T09:02:02.089Z,25.36
2017-04-21T09:02:59.977Z,27.57
2017-04-21T09:03:57.826Z,26.17
2017-04-21T09:04:55.744Z,26.54
2017-04-21T09:05:53.697Z,26.81
2017-04-21T09:06:51.615Z,28.86
2017-04-21T09:07:49.452Z,27.34
2017-04-21T09:08:47.296Z,29.01
2017-04-21T09:09:45.149Z,28.37
2017-04-21T09:10:43.021Z,27.14
2017-04-21T09:11:40.933Z,28.73
2017-04-21T09:12:38.901Z,28.26
2017-04-21T09:13:36.765Z,28.73
2017-04-21T09:14:34.633Z,29.60
2017-04-21T09:15:32.473Z,29.93
2017-04-21T09:16:30.316Z,28.91
2017-04-21T09:17:28.211Z,28.30
2017-04-21T09:18:26.104Z,29.33
2017-04-21T09:19:23.949Z,30.70
2017-04-21T09:20:21.816Z,30.40
2017-04-21T09:21:19.670Z,31.11
2017-04-21T09:22:17.509Z,31.10
2017-04-21T09:23:15.405Z,30.56
2017-04-21T09:24:13.245Z,30.76
2017-04-21T09:25:11.146Z,30.24
2017-04-21T09:26:09.030Z,29.39
2017-04-21T09:27:07.610Z,30.06
2017-04-21T09:28:05.526Z,30.40
2017-04-21T09:29:03.516Z,28.06
2017-04-21T09:30:01.398Z,31.13
2017-04-21T09:30:59.245Z,28.80
2017-04-21T09:31:57.125Z,28.04
2017-04-21T09:33:55.382Z,29.16
2017-04-21T09:34:17.444Z,29.39
2017-04-21T09:34:50.873Z,30.94
2017-04-21T09:36:17.884Z,31.87
2017-04-21T09:36:46.646Z,30.16
2017-04-21T09:37:44.558Z,27.26
2017-04-21T09:38:42.449Z,29.33
2017-04-21T09:39:40.396Z,29.47
2017-04-21T09:40:38.294Z,31.17
2017-04-21T09:41:36.141Z,28.84
2017-04-21T09:42:33.996Z,28.87
2017-04-21T09:43:31.886Z,28.01
2017-04-21T09:44:29.785Z,29.80
2017-04-21T09:45:27.653Z,30.31
2017-04-21T09:46:25.497Z,28.26
2017-04-21T09:47:23.371Z,29.53
2017-04-21T09:48:21.231Z,30.20
2017-04-21T09:49:19.087Z,29.31
2017-04-21T09:50:17.030Z,32.07
2017-04-21T09:51:14.881Z,30.54
2017-04-21T09:54:13.539Z,30.39
2017-04-21T09:54:14.143Z,29.76
2017-04-21T09:56:08.092Z,30.43
2017-04-21T09:57:02.449Z,30.66
2017-04-21T09:57:36.235Z,29.56
2017-04-21T09:59:59.154Z,26.49
2017-04-21T10:02:28.138Z,28.36
2017-04-21T10:02:40.135Z,29.50
2017-04-21T10:03:25.640Z,26.66
2017-04-21T10:04:00.300Z,30.39
2017-04-21T10:04:36.871Z,30.34
2017-04-21T10:06:18.791Z,28.81
2017-04-21T10:06:41.352Z,29.59
2017-04-21T10:07:02.362Z,26.86
2017-04-21T10:07:39.315Z,29.77
2017-04-21T10:07:42.357Z,30.69
2017-04-21T10:08:20.827Z,28.17
2017-04-21T10:08:37.684Z,30.77
2017-04-21T10:09:35.565Z,29.91
2017-04-21T10:10:33.414Z,30.56
2017-04-21T10:11:31.253Z,31.49
2017-04-21T10:12:29.097Z,29.39
2017-04-21T10:13:26.997Z,29.69
2017-04-21T10:14:24.849Z,29.24
2017-04-21T10:15:22.690Z,29.57
2017-04-21T10:16:20.540Z,28.94
2017-04-21T10:17:18.456Z,28.93
2017-04-21T10:18:16.309Z,29.53
2017-04-21T10:19:14.188Z,28.11
2017-04-21T10:20:12.074Z,28.59
2017-04-21T10:21:09.968Z,30.96
2017-04-21T10:22:07.871Z,29.23
2017-04-21T10:23:05.788Z,29.84
2017-04-21T10:24:03.709Z,28.54
2017-04-21T10:25:01.597Z,30.51
2017-04-21T10:25:59.449Z,29.57
2017-04-21T10:26:57.289Z,28.44
2017-04-21T10:27:55.234Z,29.04
2017-04-21T10:28:53.081Z,29.23
2017-04-21T10:29:50.982Z,30.33
2017-04-21T10:30:48.837Z,28.81
2017-04-21T10:31:46.689Z,30.39
2017-04-21T10:32:44.560Z,30.16
2017-04-21T10:33:42.508Z,29.94
2017-04-21T10:34:40.420Z,29.13
2017-04-21T10:35:38.340Z,30.06
2017-04-21T10:36:36.200Z,29.83
2017-04-21T10:37:34.045Z,30.17
2017-04-21T10:38:31.914Z,31.03
2017-04-21T10:39:29.792Z,30.53
2017-04-21T10:40:27.640Z,31.33
2017-04-21T10:41:57.596Z,32.77
2017-04-21T10:42:55.485Z,31.93
2017-04-21T10:43:53.369Z,33.14
2017-04-21T10:44:51.217Z,31.00
2017-04-21T10:45:49.052Z,28.40
2017-04-21T10:46:46.905Z,29.49
2017-04-21T10:47:44.819Z,26.49
2017-04-21T10:48:42.781Z,28.07
2017-04-21T10:49:40.728Z,27.26
2017-04-21T10:50:38.621Z,27.54
2017-04-21T10:51:36.457Z,29.94
2017-04-21T10:52:34.293Z,25.23
2017-04-21T10:53:32.130Z,26.79
2017-04-21T10:54:30.019Z,26.54
2017-04-21T10:55:27.892Z,25.13
2017-04-21T10:56:25.723Z,25.51
2017-04-21T10:57:23.576Z,25.23
2017-04-21T10:58:21.423Z,23.10
2017-04-21T10:59:19.357Z,22.37
2017-04-21T11:00:17.216Z,22.76
2017-04-21T11:01:15.120Z,27.00
2017-04-21T11:02:13.036Z,23.46
2017-04-21T11:03:10.917Z,23.66
2017-04-21T11:04:08.861Z,21.61
2017-04-21T11:05:06.721Z,23.20
2017-04-21T11:06:04.608Z,20.56
2017-04-21T11:07:02.461Z,18.34
2017-04-21T11:08:00.300Z,22.90
2017-04-21T11:08:58.220Z,19.81
2017-04-21T11:09:56.061Z,20.97
2017-04-21T11:10:53.925Z,21.39
2017-04-21T11:11:51.769Z,21.56
2017-04-21T11:12:49.627Z,23.91
2017-04-21T11:13:47.493Z,23.27
2017-04-21T11:14:45.393Z,22.84
2017-04-21T11:15:43.304Z,21.81
2017-04-21T11:16:41.230Z,21.56
2017-04-21T11:17:39.141Z,20.70
2017-04-21T11:18:36.999Z,21.31
2017-04-21T11:19:34.873Z,22.34
2017-04-21T11:20:32.745Z,23.51
2017-04-21T11:21:30.748Z,24.61
2017-04-21T11:22:28.604Z,24.90
2017-04-21T11:23:26.449Z,24.04
2017-04-21T11:24:24.366Z,24.46
2017-04-21T11:25:22.242Z,24.10
2017-04-21T11:26:20.084Z,23.27
2017-04-21T11:27:17.940Z,25.69
2017-04-21T11:28:16.073Z,23.23
2017-04-21T11:29:14.081Z,24.80
2017-04-21T11:30:12.027Z,25.93
2017-04-21T11:31:09.928Z,22.99
2017-04-21T11:32:07.801Z,24.91
2017-04-21T11:33:05.645Z,24.84
2017-04-21T11:34:03.501Z,24.63
2017-04-21T11:35:01.369Z,24.59
2017-04-21T11:35:59.216Z,25.47
2017-04-21T11:36:57.104Z,24.99
2017-04-21T11:37:54.952Z,23.61
2017-04-21T11:38:52.797Z,21.87
2017-04-21T11:39:50.648Z,24.00
2017-04-21T11:40:48.525Z,24.30
2017-04-21T11:41:46.356Z,23.79
2017-04-21T11:42:44.312Z,23.50
2017-04-21T11:43:42.177Z,23.49
2017-04-21T11:44:40.065Z,23.74
2017-04-21T11:45:37.945Z,23.26
2017-04-21T11:46:35.777Z,24.13
2017-04-21T11:47:33.624Z,23.37
2017-04-21T11:48:31.504Z,23.71
2017-04-21T11:49:29.348Z,23.66
2017-04-21T11:50:27.217Z,24.21
2017-04-21T11:51:25.093Z,23.41
2017-04-21T11:52:23.001Z,22.96
2017-04-21T11:53:20.846Z,21.80
2017-04-21T11:54:18.725Z,22.81
2017-04-21T11:55:16.588Z,24.46
2017-04-21T11:56:14.493Z,25.16
2017-04-21T11:57:12.429Z,23.41
2017-04-21T11:58:10.376Z,22.71
2017-04-21T11:59:08.260Z,20.61
2017-04-21T12:00:06.132Z,22.43
2017-04-21T12:01:04.057Z,22.71
2017-04-21T12:02:01.928Z,23.14
2017-04-21T12:02:59.825Z,22.29
2017-04-21T12:03:57.677Z,22.47
2017-04-21T12:04:55.525Z,24.01
2017-04-21T12:05:53.425Z,22.10
2017-04-21T12:06:51.292Z,21.46
2017-04-21T12:07:49.132Z,20.69
2017-04-21T12:08:47.029Z,23.31
2017-04-21T12:09:44.893Z,20.53
2017-04-21T12:10:42.812Z,19.51
2017-04-21T12:11:40.705Z,20.66
2017-04-21T12:12:38.633Z,19.87
2017-04-21T12:13:36.477Z,20.17
2017-04-21T12:14:34.353Z,20.34
2017-04-21T12:15:32.229Z,19.26
2017-04-21T12:16:30.661Z,19.90
2017-04-21T12:17:28.496Z,18.96
2017-04-21T12:18:26.333Z,20.09
2017-04-21T12:19:24.217Z,21.06
2017-04-21T12:20:22.072Z,20.31
2017-04-21T12:21:19.912Z,20.46
2017-04-21T12:22:17.748Z,21.00
2017-04-21T12:23:15.613Z,19.27
2017-04-21T12:24:13.502Z,20.33
2017-04-21T12:25:11.463Z,20.09
2017-04-21T12:26:09.377Z,19.31
2017-04-21T12:27:07.224Z,19.53